createdAt,value
2018-09-05T00:02:04.993Z,23.90
2018-09-05T00:04:34.538Z,22.97
2018-09-05T00:07:04.083Z,24.10
2018-09-05T00:09:33.595Z,23.57
2018-09-05T00:12:03.195Z,24.57
2018-09-05T00:14:32.716Z,23.13
2018-09-05T00:17:02.587Z,22.50
2018-09-05T00:19:32.494Z,23.17
2018-09-05T00:22:02.068Z,22.40
2018-09-05T00:24:31.627Z,22.30
2018-09-05T00:27:01.394Z,21.23
2018-09-05T00:29:30.942Z,21.60
2018-09-05T00:32:00.468Z,22.17
2018-09-05T00:34:29.978Z,20.60
2018-09-05T00:36:59.555Z,20.93
2018-09-05T00:39:29.112Z,21.33
2018-09-05T00:41:59.023Z,20.60
2018-09-05T00:44:28.589Z,19.90
2018-09-05T00:46:58.267Z,21.37
2018-09-05T00:49:27.838Z,21.37
2018-09-05T00:51:57.344Z,20.73
2018-09-05T00:54:26.886Z,20.73
2018-09-05T00:56:56.462Z,20.33
2018-09-05T00:59:26.017Z,21.40
2018-09-05T01:01:55.530Z,20.80
2018-09-05T01:04:25.310Z,21.10
2018-09-05T01:06:54.918Z,21.17
2018-09-05T01:09:24.415Z,20.20
2018-09-05T01:11:54.001Z,20.03
2018-09-05T01:14:23.523Z,21.50
2018-09-05T01:16:53.040Z,20.90
2018-09-05T01:19:22.549Z,21.30
2018-09-05T01:21:52.115Z,21.17
2018-09-05T01:24:21.653Z,20.87
2018-09-05T01:26:51.390Z,20.47
2018-09-05T01:29:20.947Z,20.37
2018-09-05T01:31:50.518Z,20.57
2018-09-05T01:34:20.410Z,20.60
2018-09-05T01:36:49.949Z,20.63
2018-09-05T01:39:19.478Z,21.50
2018-09-05T01:41:48.994Z,20.37
2018-09-05T01:44:18.523Z,20.40
2018-09-05T01:46:48.069Z,20.40
2018-09-05T01:49:17.619Z,21.13
2018-09-05T01:51:47.170Z,21.40
2018-09-05T01:54:17.343Z,22.10
2018-09-05T01:56:46.904Z,22.43
2018-09-05T01:59:16.412Z,21.10
2018-09-05T02:01:46.403Z,21.03
2018-09-05T02:04:16.483Z,20.70
2018-09-05T02:06:46.055Z,19.97
2018-09-05T02:09:15.702Z,21.03
2018-09-05T02:11:45.251Z,20.20
2018-09-05T02:14:14.791Z,21.47
2018-09-05T02:16:44.360Z,19.67
2018-09-05T02:19:13.972Z,20.03
2018-09-05T02:21:43.499Z,20.03
2018-09-05T02:24:13.057Z,20.77
2018-09-05T02:26:42.542Z,21.40
2018-09-05T02:29:12.071Z,20.50
2018-09-05T02:31:41.599Z,21.30
2018-09-05T02:34:11.131Z,20.60
2018-09-05T02:36:40.667Z,21.70
2018-09-05T02:39:11.499Z,21.50
2018-09-05T02:41:41.075Z,19.90
2018-09-05T02:44:15.758Z,19.77
2018-09-05T02:46:45.274Z,21.23
2018-09-05T02:49:14.858Z,19.67
2018-09-05T02:51:44.424Z,21.30
2018-09-05T02:54:14.322Z,20.50
2018-09-05T02:56:43.883Z,20.30
2018-09-05T02:59:13.462Z,19.93
2018-09-05T03:01:43.009Z,19.30
2018-09-05T03:04:12.529Z,19.53
2018-09-05T03:06:42.087Z,19.47
2018-09-05T03:09:11.711Z,21.90
2018-09-05T03:11:41.417Z,20.13
2018-09-05T03:14:10.962Z,21.20
2018-09-05T03:16:40.508Z,20.60
2018-09-05T03:19:10.032Z,20.00
2018-09-05T03:21:39.566Z,20.60
2018-09-05T03:24:09.094Z,19.70
2018-09-05T03:26:38.651Z,20.47
2018-09-05T03:29:08.167Z,19.37
2018-09-05T03:31:37.694Z,19.73
2018-09-05T03:34:07.455Z,20.60
2018-09-05T03:36:36.986Z,21.03
2018-09-05T03:39:10.152Z,20.40
2018-09-05T03:41:39.741Z,19.70
2018-09-05T03:44:09.274Z,19.90
2018-09-05T03:46:39.044Z,19.00
2018-09-05T03:49:08.546Z,20.87
2018-09-05T03:51:38.092Z,19.10
2018-09-05T03:54:08.011Z,20.33
2018-09-05T03:56:37.591Z,20.00
2018-09-05T03:59:07.486Z,20.60
2018-09-05T04:01:37.323Z,20.33
2018-09-05T04:04:07.255Z,19.27
2018-09-05T04:06:36.772Z,20.53
2018-09-05T04:09:08.958Z,20.10
2018-09-05T04:11:38.601Z,20.37
2018-09-05T04:14:08.164Z,20.33
2018-09-05T04:16:37.650Z,19.03
2018-09-05T04:19:07.187Z,18.87
2018-09-05T04:21:36.747Z,20.00
2018-09-05T04:24:06.303Z,21.00
2018-09-05T04:26:35.813Z,19.57
2018-09-05T04:29:05.358Z,18.43
2018-09-05T04:31:34.882Z,21.87
2018-09-05T04:34:04.432Z,20.10
2018-09-05T04:36:33.935Z,20.73
2018-09-05T04:39:05.033Z,17.67
2018-09-05T04:41:34.556Z,17.80
2018-09-05T04:44:04.443Z,18.40
2018-09-05T04:46:33.975Z,18.57
2018-09-05T04:49:03.586Z,19.30
2018-09-05T04:51:34.931Z,18.63
2018-09-05T04:54:05.820Z,20.33
2018-09-05T04:56:35.421Z,20.37
2018-09-05T04:59:04.962Z,19.50
2018-09-05T05:01:34.956Z,19.27
2018-09-05T05:04:04.491Z,18.67
2018-09-05T05:06:34.031Z,20.43
2018-09-05T05:09:04.112Z,18.90
2018-09-05T05:11:33.644Z,19.63
2018-09-05T05:14:03.168Z,20.20
2018-09-05T05:16:32.726Z,19.80
2018-09-05T05:19:02.282Z,20.00
2018-09-05T05:21:32.057Z,20.00
2018-09-05T05:24:01.591Z,19.40
2018-09-05T05:26:31.090Z,19.97
2018-09-05T05:29:00.672Z,20.40
2018-09-05T05:31:30.191Z,19.13
2018-09-05T05:33:59.719Z,18.60
2018-09-05T05:36:29.258Z,19.13
2018-09-05T05:38:58.807Z,20.27
2018-09-05T05:41:28.586Z,20.30
2018-09-05T05:43:58.192Z,18.60
2018-09-05T05:46:27.947Z,19.03
2018-09-05T05:48:57.564Z,19.37
2018-09-05T05:51:27.065Z,20.00
2018-09-05T05:53:56.619Z,20.23
2018-09-05T05:56:26.171Z,21.60
2018-09-05T05:58:55.739Z,21.00
2018-09-05T06:01:25.296Z,20.70
2018-09-05T06:03:54.856Z,20.60
2018-09-05T06:06:24.451Z,20.80
2018-09-05T06:08:54.119Z,21.90
2018-09-05T06:11:23.660Z,21.03
2018-09-05T06:13:53.226Z,21.10
2018-09-05T06:16:22.774Z,20.13
2018-09-05T06:18:52.315Z,21.30
2018-09-05T06:21:21.932Z,22.43
2018-09-05T06:23:51.475Z,22.13
2018-09-05T06:26:21.171Z,20.47
2018-09-05T06:28:50.664Z,21.77
2018-09-05T06:31:20.480Z,21.00
2018-09-05T06:33:50.025Z,21.03
2018-09-05T06:36:19.668Z,21.27
2018-09-05T06:38:50.023Z,21.50
2018-09-05T06:41:19.594Z,23.10
2018-09-05T06:43:49.121Z,21.63
2018-09-05T06:46:19.263Z,22.30
2018-09-05T06:48:48.931Z,22.63
2018-09-05T06:51:18.816Z,22.30
2018-09-05T06:53:48.763Z,22.60
2018-09-05T06:56:18.392Z,23.70
2018-09-05T06:58:48.220Z,23.87
2018-09-05T07:01:17.955Z,23.30
2018-09-05T07:03:47.712Z,23.63
2018-09-05T07:06:17.512Z,22.67
2018-09-05T07:08:47.323Z,21.80
2018-09-05T07:11:17.191Z,22.90
2018-09-05T07:13:46.753Z,23.40
2018-09-05T07:16:16.505Z,23.90
2018-09-05T07:18:46.108Z,23.53
2018-09-05T07:21:15.772Z,23.30
2018-09-05T07:23:45.609Z,25.07
2018-09-05T07:26:15.318Z,23.40
2018-09-05T07:28:45.021Z,24.00
2018-09-05T07:31:14.635Z,25.63
2018-09-05T07:33:44.359Z,25.70
2018-09-05T07:36:13.882Z,26.07
2018-09-05T07:38:43.420Z,23.57
2018-09-05T07:41:12.972Z,24.37
2018-09-05T07:43:42.873Z,25.97
2018-09-05T07:46:12.631Z,27.10
2018-09-05T07:48:42.230Z,26.50
2018-09-05T07:51:11.800Z,26.10
2018-09-05T07:53:41.524Z,26.97
2018-09-05T07:56:11.070Z,27.60
2018-09-05T07:58:40.627Z,26.70
2018-09-05T08:01:10.219Z,26.27
2018-09-05T08:03:39.739Z,26.80
2018-09-05T08:06:09.295Z,26.47
2018-09-05T08:08:38.866Z,27.07
2018-09-05T08:11:08.446Z,26.50
2018-09-05T08:13:38.372Z,27.40
2018-09-05T08:16:08.195Z,25.20
2018-09-05T08:18:37.840Z,27.00
2018-09-05T08:21:07.396Z,29.00
2018-09-05T08:23:37.343Z,29.97
2018-09-05T08:26:06.965Z,25.23
2018-09-05T08:28:36.547Z,25.90
2018-09-05T08:31:06.290Z,24.67
2018-09-05T08:33:36.251Z,24.80
2018-09-05T08:36:06.392Z,24.83
2018-09-05T08:38:35.984Z,26.07
2018-09-05T08:41:09.006Z,25.70
2018-09-05T08:43:39.871Z,25.40
2018-09-05T08:46:09.732Z,26.10
2018-09-05T08:48:39.482Z,25.30
2018-09-05T08:51:09.158Z,24.53
2018-09-05T08:53:38.779Z,25.80
2018-09-05T08:56:08.464Z,23.70
2018-09-05T08:58:38.150Z,25.40
2018-09-05T09:01:07.896Z,27.20
2018-09-05T09:03:37.495Z,25.53
2018-09-05T09:06:07.570Z,25.37
2018-09-05T09:08:37.113Z,24.40
2018-09-05T09:11:06.992Z,25.37
2018-09-05T09:13:36.626Z,27.50
2018-09-05T09:16:06.362Z,24.67
2018-09-05T09:18:35.978Z,24.13
2018-09-05T09:21:05.555Z,26.63
2018-09-05T09:23:35.123Z,25.37
2018-09-05T09:26:05.072Z,27.10
2018-09-05T09:28:34.618Z,25.30
2018-09-05T09:31:04.391Z,25.30
2018-09-05T09:33:33.963Z,23.67
2018-09-05T09:36:03.547Z,24.60
2018-09-05T09:38:33.322Z,25.37
2018-09-05T09:41:02.880Z,24.83
2018-09-05T09:43:32.574Z,23.30
2018-09-05T09:46:02.187Z,24.17
2018-09-05T09:48:31.751Z,25.33
2018-09-05T09:51:01.323Z,25.70
2018-09-05T09:53:30.835Z,22.00
2018-09-05T09:56:00.364Z,23.93
2018-09-05T09:58:29.955Z,24.30
2018-09-05T10:01:04.887Z,23.70
2018-09-05T10:03:39.816Z,22.77
2018-09-05T10:06:15.142Z,24.20
2018-09-05T10:08:50.007Z,22.00
2018-09-05T10:11:23.619Z,22.00
2018-09-05T10:13:58.507Z,23.57
2018-09-05T10:16:33.104Z,22.60
2018-09-05T10:19:06.736Z,20.70
2018-09-05T10:21:36.627Z,22.23
2018-09-05T10:24:06.224Z,23.20
2018-09-05T10:26:35.848Z,24.00
2018-09-05T10:29:05.488Z,23.60
2018-09-05T10:31:35.049Z,21.77
2018-09-05T10:34:04.822Z,21.53
2018-09-05T10:36:34.358Z,20.80
2018-09-05T10:39:04.993Z,20.20
2018-09-05T10:41:34.532Z,20.33
2018-09-05T10:44:04.382Z,22.77
2018-09-05T10:46:33.991Z,21.23
2018-09-05T10:49:03.591Z,21.73
2018-09-05T10:51:38.398Z,21.15
2018-09-05T10:54:08.318Z,21.30
2018-09-05T10:56:38.230Z,20.10
2018-09-05T10:59:07.787Z,19.47
2018-09-05T11:01:37.405Z,21.73
2018-09-05T11:04:07.330Z,22.00
2018-09-05T11:06:37.100Z,22.07
2018-09-05T11:09:10.730Z,22.03
2018-09-05T11:11:40.578Z,19.77
2018-09-05T11:14:11.099Z,20.57
2018-09-05T11:16:41.054Z,20.40
2018-09-05T11:19:10.851Z,20.30
2018-09-05T11:21:40.716Z,20.57
2018-09-05T11:24:10.347Z,22.03
2018-09-05T11:26:39.935Z,21.33
2018-09-05T11:29:09.623Z,20.53
2018-09-05T11:31:39.386Z,20.87
2018-09-05T11:34:08.930Z,21.60
2018-09-05T11:36:38.458Z,21.20
2018-09-05T11:39:12.042Z,20.40
2018-09-05T11:41:41.664Z,20.77
2018-09-05T11:44:11.235Z,21.17
2018-09-05T11:46:40.787Z,20.77
2018-09-05T11:49:10.356Z,22.80
2018-09-05T11:51:39.958Z,22.30
2018-09-05T11:54:10.224Z,22.37
2018-09-05T11:56:39.831Z,21.60
2018-09-05T11:59:09.415Z,21.90
2018-09-05T12:01:38.981Z,20.40
2018-09-05T12:04:08.735Z,20.80
2018-09-05T12:06:38.391Z,21.00
2018-09-05T12:09:10.939Z,21.77
2018-09-05T12:11:40.534Z,20.90
2018-09-05T12:14:10.858Z,20.62
2018-09-05T12:16:40.483Z,20.43
2018-09-05T12:19:10.090Z,21.13
2018-09-05T12:21:40.024Z,20.70
2018-09-05T12:24:09.543Z,19.37
2018-09-05T12:26:39.475Z,20.40
2018-09-05T12:29:11.359Z,21.03
2018-09-05T12:31:41.496Z,20.07
2018-09-05T12:34:12.756Z,19.27
2018-09-05T12:36:42.353Z,19.60
2018-09-05T12:39:13.928Z,18.90
2018-09-05T12:41:44.027Z,20.93
2018-09-05T12:44:13.649Z,19.93
2018-09-05T12:46:43.241Z,19.10
2018-09-05T12:49:12.779Z,17.60
2018-09-05T12:51:42.310Z,19.67
2018-09-05T12:54:11.931Z,18.30
2018-09-05T12:56:41.490Z,19.70
2018-09-05T12:59:11.108Z,19.50
2018-09-05T13:01:40.806Z,17.60
2018-09-05T13:04:10.919Z,19.10
2018-09-05T13:06:40.508Z,17.60
2018-09-05T13:09:13.040Z,17.90
2018-09-05T13:11:43.279Z,18.67
2018-09-05T13:14:13.542Z,18.10
2018-09-05T13:16:43.072Z,18.50
2018-09-05T13:19:12.636Z,18.50
2018-09-05T13:21:42.230Z,17.33
2018-09-05T13:24:11.859Z,16.57
2018-09-05T13:26:42.041Z,16.50
2018-09-05T13:29:11.774Z,17.10
2018-09-05T13:31:41.383Z,16.47
2018-09-05T13:34:21.341Z,16.40
2018-09-05T13:36:54.851Z,16.60
2018-09-05T13:39:27.584Z,17.13
2018-09-05T13:41:57.235Z,16.30
2018-09-05T13:44:32.541Z,17.23
2018-09-05T13:47:03.914Z,17.13
2018-09-05T13:49:35.040Z,14.73
2018-09-05T13:52:06.530Z,15.27
2018-09-05T13:54:37.399Z,15.30
2018-09-05T13:57:06.948Z,15.20
2018-09-05T13:59:36.843Z,15.07
2018-09-05T14:02:06.794Z,15.30
2018-09-05T14:04:36.668Z,16.50
2018-09-05T14:07:06.278Z,16.63
2018-09-05T14:09:35.866Z,16.37
2018-09-05T14:12:06.358Z,16.10
2018-09-05T14:14:36.271Z,15.73
2018-09-05T14:17:06.003Z,16.80
2018-09-05T14:19:35.854Z,15.73
2018-09-05T14:22:05.687Z,16.30
2018-09-05T14:24:35.350Z,15.87
2018-09-05T14:27:05.792Z,16.97
2018-09-05T14:29:35.390Z,15.27
2018-09-05T14:32:04.966Z,15.90
2018-09-05T14:34:34.496Z,15.70
2018-09-05T14:37:04.187Z,15.70
2018-09-05T14:39:33.879Z,15.60
2018-09-05T14:42:03.657Z,15.87
2018-09-05T14:44:33.414Z,16.00
2018-09-05T14:47:03.687Z,15.80
2018-09-05T14:49:33.339Z,17.20
2018-09-05T14:52:02.971Z,16.57
2018-09-05T14:54:32.869Z,15.10
2018-09-05T14:57:03.364Z,15.27
2018-09-05T14:59:33.014Z,14.90
2018-09-05T15:02:02.596Z,15.73
2018-09-05T15:04:32.341Z,15.53
2018-09-05T15:07:02.040Z,15.43
2018-09-05T15:09:31.751Z,15.83
2018-09-05T15:12:01.416Z,15.13
2018-09-05T15:14:31.091Z,16.13
2018-09-05T15:17:01.196Z,15.98
2018-09-05T15:19:31.120Z,15.23
2018-09-05T15:22:05.811Z,14.90
2018-09-05T15:24:35.646Z,15.80
2018-09-05T15:27:06.567Z,15.33
2018-09-05T15:29:36.715Z,15.53
2018-09-05T15:32:06.420Z,15.03
2018-09-05T15:34:36.423Z,15.70
2018-09-05T15:37:06.167Z,15.60
2018-09-05T15:39:35.811Z,16.13
2018-09-05T15:42:05.976Z,15.70
2018-09-05T15:44:35.983Z,16.20
2018-09-05T15:47:05.785Z,18.03
2018-09-05T15:49:35.499Z,18.20
2018-09-05T15:52:05.778Z,17.80
2018-09-05T15:54:35.643Z,18.20
2018-09-05T15:57:05.244Z,18.73
2018-09-05T15:59:34.818Z,19.57
2018-09-05T16:02:04.442Z,18.80
2018-09-05T16:04:34.079Z,18.57
2018-09-05T16:07:04.247Z,19.67
2018-09-05T16:09:33.819Z,19.00
2018-09-05T16:12:03.439Z,20.37
2018-09-05T16:14:33.011Z,20.20
2018-09-05T16:17:02.616Z,19.53
2018-09-05T16:19:32.186Z,19.70
2018-09-05T16:22:01.731Z,19.80
2018-09-05T16:24:31.243Z,20.90
2018-09-05T16:27:00.902Z,19.67
2018-09-05T16:29:30.444Z,20.43
2018-09-05T16:32:00.050Z,20.97
2018-09-05T16:34:29.956Z,21.20
2018-09-05T16:36:59.547Z,20.60
2018-09-05T16:39:29.102Z,20.57
2018-09-05T16:41:58.816Z,21.43
2018-09-05T16:44:28.443Z,20.90
2018-09-05T16:46:58.007Z,21.27
2018-09-05T16:49:27.587Z,21.40
2018-09-05T16:51:57.169Z,20.47
2018-09-05T16:54:26.752Z,20.23
2018-09-05T16:56:56.386Z,21.20
2018-09-05T16:59:25.961Z,20.60
2018-09-05T17:01:55.877Z,20.83
2018-09-05T17:04:25.569Z,19.70
2018-09-05T17:06:55.127Z,21.90
2018-09-05T17:09:24.761Z,20.93
2018-09-05T17:11:54.693Z,20.30
2018-09-05T17:14:24.273Z,20.53
2018-09-05T17:16:54.048Z,19.70
2018-09-05T17:19:24.131Z,20.30
2018-09-05T17:21:53.696Z,21.27
2018-09-05T17:24:23.321Z,23.23
2018-09-05T17:26:52.859Z,22.60
2018-09-05T17:29:22.427Z,21.73
2018-09-05T17:31:52.019Z,20.47
2018-09-05T17:34:21.646Z,21.93
2018-09-05T17:36:51.247Z,21.50
2018-09-05T17:39:21.192Z,22.40
2018-09-05T17:41:51.328Z,22.00
2018-09-05T17:44:21.029Z,24.30
2018-09-05T17:46:50.807Z,21.77
2018-09-05T17:49:20.370Z,21.77
2018-09-05T17:51:49.942Z,21.20
2018-09-05T17:54:19.970Z,20.70
2018-09-05T17:56:49.561Z,19.90
2018-09-05T17:59:19.194Z,21.00
2018-09-05T18:01:48.789Z,20.87
2018-09-05T18:04:18.512Z,20.20
2018-09-05T18:06:48.192Z,20.43
2018-09-05T18:09:17.763Z,20.97
2018-09-05T18:11:47.432Z,21.13
2018-09-05T18:14:17.286Z,20.43
2018-09-05T18:16:46.917Z,20.70
2018-09-05T18:19:16.947Z,21.43
2018-09-05T18:21:46.657Z,21.13
2018-09-05T18:24:16.693Z,21.20
2018-09-05T18:26:46.496Z,21.20
2018-09-05T18:29:16.290Z,21.40
2018-09-05T18:31:45.884Z,22.23
2018-09-05T18:34:15.496Z,22.30
2018-09-05T18:36:45.096Z,22.27
2018-09-05T18:39:21.307Z,21.97
2018-09-05T18:41:50.887Z,22.87
2018-09-05T18:44:20.539Z,20.13
2018-09-05T18:46:50.178Z,21.20
2018-09-05T18:49:20.130Z,21.40
2018-09-05T18:51:49.800Z,23.03
2018-09-05T18:54:19.418Z,22.43
2018-09-05T18:56:49.101Z,32.67
2018-09-05T18:59:19.108Z,24.03
2018-09-05T19:01:49.229Z,25.80
2018-09-05T19:04:18.860Z,24.40
2018-09-05T19:06:48.470Z,21.83
2018-09-05T19:09:18.081Z,21.60
2018-09-05T19:11:47.830Z,23.27
2018-09-05T19:14:17.501Z,24.90
2018-09-05T19:16:47.228Z,23.37
2018-09-05T19:19:16.834Z,22.47
2018-09-05T19:21:46.505Z,22.63
2018-09-05T19:24:16.088Z,23.37
2018-09-05T19:26:45.921Z,23.00
2018-09-05T19:29:15.637Z,23.20
2018-09-05T19:31:45.443Z,24.43
2018-09-05T19:34:15.076Z,21.83
2018-09-05T19:36:44.720Z,22.70
2018-09-05T19:39:14.555Z,22.93
2018-09-05T19:41:44.195Z,24.13
2018-09-05T19:44:13.985Z,22.70
2018-09-05T19:46:43.677Z,22.17
2018-09-05T19:49:13.431Z,23.60
2018-09-05T19:51:43.357Z,23.60
2018-09-05T19:54:13.048Z,24.20
2018-09-05T19:56:42.882Z,23.23
2018-09-05T19:59:12.601Z,24.20
2018-09-05T20:01:42.392Z,23.67
2018-09-05T20:04:12.012Z,23.50
2018-09-05T20:06:41.658Z,24.03
2018-09-05T20:09:11.246Z,25.00
2018-09-05T20:11:40.914Z,25.67
2018-09-05T20:14:10.519Z,24.90
2018-09-05T20:16:40.188Z,24.17
2018-09-05T20:19:09.855Z,25.40
2018-09-05T20:21:39.491Z,25.53
2018-09-05T20:24:09.195Z,25.70
2018-09-05T20:26:39.459Z,25.00
2018-09-05T20:29:09.059Z,26.33
2018-09-05T20:31:40.874Z,25.87
2018-09-05T20:34:10.645Z,26.70
2018-09-05T20:36:40.603Z,26.20
2018-09-05T20:39:11.961Z,26.20
2018-09-05T20:41:41.983Z,25.70
2018-09-05T20:44:11.673Z,26.60
2018-09-05T20:46:41.239Z,28.13
2018-09-05T20:49:10.792Z,27.40
2018-09-05T20:51:40.344Z,26.77
2018-09-05T20:54:10.127Z,26.67
2018-09-05T20:56:39.709Z,25.17
2018-09-05T20:59:09.310Z,27.37
2018-09-05T21:01:39.259Z,26.40
2018-09-05T21:04:08.867Z,27.33
2018-09-05T21:06:38.460Z,27.60
2018-09-05T21:09:09.284Z,27.60
2018-09-05T21:11:38.864Z,26.60
2018-09-05T21:14:08.441Z,29.03
2018-09-05T21:16:38.032Z,27.07
2018-09-05T21:19:07.704Z,27.20
2018-09-05T21:21:37.344Z,27.67
2018-09-05T21:24:07.168Z,27.80
2018-09-05T21:26:37.072Z,27.77
2018-09-05T21:29:06.779Z,30.30
2018-09-05T21:31:36.402Z,30.77
2018-09-05T21:34:06.211Z,28.97
2018-09-05T21:36:35.800Z,30.07
2018-09-05T21:39:07.894Z,29.10
2018-09-05T21:41:37.748Z,28.60
2018-09-05T21:44:07.335Z,27.17
2018-09-05T21:46:36.939Z,29.27
2018-09-05T21:49:07.739Z,26.43
2018-09-05T21:51:37.485Z,27.70
2018-09-05T21:54:07.398Z,27.67
2018-09-05T21:56:37.027Z,26.60
2018-09-05T21:59:06.886Z,27.03
2018-09-05T22:01:36.457Z,27.90
2018-09-05T22:04:06.027Z,26.80
2018-09-05T22:06:35.604Z,26.90
2018-09-05T22:09:08.134Z,28.40
2018-09-05T22:11:37.807Z,26.33
2018-09-05T22:14:07.538Z,27.03
2018-09-05T22:16:37.461Z,26.63
2018-09-05T22:19:07.359Z,28.33
2018-09-05T22:21:36.884Z,27.90
2018-09-05T22:24:06.063Z,28.33
2018-09-05T22:26:35.584Z,26.50
2018-09-05T22:29:05.517Z,28.20
2018-09-05T22:31:35.107Z,27.97
2018-09-05T22:34:05.011Z,26.93
2018-09-05T22:36:34.542Z,26.47
2018-09-05T22:39:04.628Z,27.50
2018-09-05T22:41:34.148Z,25.93
2018-09-05T22:44:20.572Z,26.93
2018-09-05T22:47:06.951Z,26.60
2018-09-05T22:50:05.360Z,27.10
2018-09-05T22:57:06.476Z,27.90
2018-09-05T23:00:23.633Z,28.13
2018-09-05T23:17:11.928Z,27.70
2018-09-05T23:21:58.519Z,29.10
2018-09-05T23:24:28.044Z,30.30
2018-09-05T23:26:57.597Z,30.00
2018-09-05T23:29:27.131Z,31.00
2018-09-05T23:31:56.711Z,31.37
2018-09-05T23:34:26.265Z,30.97
2018-09-05T23:36:55.824Z,30.50
2018-09-05T23:39:25.368Z,29.87
2018-09-05T23:41:54.944Z,29.77
2018-09-05T23:44:24.536Z,29.03
2018-09-05T23:46:54.116Z,29.60
2018-09-05T23:49:23.612Z,28.63
2018-09-05T23:51:53.190Z,30.03
2018-09-05T23:54:22.735Z,28.43
2018-09-05T23:56:52.337Z,28.00
2018-09-05T23:59:21.916Z,28.87
